Terminal Aerodrome Forecast
Issued by NWS Bismarck, ND

Home | Current Version | Previous Version | Text Only | Print | Product List | Glossary Off
Versions: 1 2 3 4 5 6 7 8 9 10 11 12 13 14 15

000
FTUS43 KBIS 221700
TAFISN
TAF
KISN 221738Z 2218/2318 26014G24KT P6SM SCT025
     FM222000 27016G24KT P6SM BKN030
     FM222300 28010KT P6SM SCT080
     FM231100 00000KT P6SM FEW250=

USA.gov is the U.S. government's official web portal to all federal, state and local government web resources and services.